createdAt,value
2018-08-28T00:01:33.325Z,2.93
2018-08-28T00:04:00.521Z,3.33
2018-08-28T00:06:27.754Z,2.60
2018-08-28T00:08:54.997Z,3.10
2018-08-28T00:11:22.262Z,2.80
2018-08-28T00:13:49.567Z,2.97
2018-08-28T00:16:16.793Z,3.07
2018-08-28T00:21:53.462Z,2.80
2018-08-28T00:24:20.682Z,2.70
2018-08-28T00:26:47.889Z,3.40
2018-08-28T00:29:15.089Z,3.17
2018-08-28T00:31:42.312Z,2.97
2018-08-28T00:34:09.505Z,3.30
2018-08-28T00:36:36.928Z,2.87
2018-08-28T00:39:04.922Z,2.87
2018-08-28T00:41:32.145Z,3.10
2018-08-28T00:43:59.369Z,3.20
2018-08-28T00:46:26.597Z,3.47
2018-08-28T00:48:53.801Z,2.93
2018-08-28T00:51:21.058Z,3.33
2018-08-28T00:53:48.278Z,3.27
2018-08-28T00:56:15.506Z,3.80
2018-08-28T00:58:49.279Z,3.10
2018-08-28T01:01:16.523Z,3.10
2018-08-28T01:03:43.767Z,4.27
2018-08-28T01:06:10.993Z,3.33
2018-08-28T01:08:38.222Z,3.20
2018-08-28T01:11:06.041Z,4.10
2018-08-28T01:13:33.286Z,3.17
2018-08-28T01:16:00.500Z,3.50
2018-08-28T01:18:27.783Z,3.43
2018-08-28T01:20:54.987Z,3.43
2018-08-28T01:23:22.224Z,3.90
2018-08-28T01:25:49.418Z,3.10
2018-08-28T01:28:16.725Z,4.23
2018-08-28T01:30:43.929Z,3.50
2018-08-28T01:33:11.160Z,3.83
2018-08-28T01:35:38.362Z,3.30
2018-08-28T01:38:05.590Z,3.43
2018-08-28T01:40:32.782Z,3.40
2018-08-28T01:43:00.297Z,3.10
2018-08-28T01:45:27.585Z,4.13
2018-08-28T01:47:54.853Z,4.53
2018-08-28T01:50:22.138Z,4.93
2018-08-28T01:52:49.441Z,4.40
2018-08-28T01:55:16.642Z,4.60
2018-08-28T01:57:43.884Z,4.40
2018-08-28T02:00:11.138Z,5.03
2018-08-28T02:02:38.531Z,4.77
2018-08-28T02:05:06.065Z,5.40
2018-08-28T02:07:33.305Z,4.70
2018-08-28T02:10:00.506Z,6.07
2018-08-28T02:12:27.759Z,5.77
2018-08-28T02:14:55.186Z,5.60
2018-08-28T02:17:22.417Z,5.90
2018-08-28T02:19:49.618Z,6.00
2018-08-28T02:22:16.849Z,6.27
2018-08-28T02:24:44.046Z,5.73
2018-08-28T02:27:11.269Z,5.70
2018-08-28T02:29:38.466Z,5.87
2018-08-28T02:32:05.731Z,6.80
2018-08-28T02:34:32.947Z,6.20
2018-08-28T02:37:00.182Z,6.43
2018-08-28T02:39:27.430Z,6.87
2018-08-28T02:41:54.655Z,6.10
2018-08-28T02:44:21.864Z,7.70
2018-08-28T02:46:49.071Z,6.97
2018-08-28T02:49:16.295Z,6.63
2018-08-28T02:51:43.496Z,6.63
2018-08-28T02:54:10.738Z,7.03
2018-08-28T02:56:37.943Z,6.30
2018-08-28T02:59:05.246Z,7.20
2018-08-28T03:01:32.466Z,6.50
2018-08-28T03:03:59.711Z,6.27
2018-08-28T03:06:26.958Z,7.10
2018-08-28T03:08:54.171Z,6.83
2018-08-28T03:11:21.434Z,7.20
2018-08-28T03:13:48.648Z,7.40
2018-08-28T03:16:15.900Z,6.50
2018-08-28T03:18:44.879Z,7.83
2018-08-28T03:21:13.463Z,7.20
2018-08-28T03:23:42.352Z,7.67
2018-08-28T03:26:09.898Z,7.57
2018-08-28T03:28:37.117Z,6.60
2018-08-28T03:31:04.619Z,7.50
2018-08-28T03:33:31.837Z,7.87
2018-08-28T03:35:59.043Z,7.17
2018-08-28T03:38:26.295Z,7.10
2018-08-28T03:40:53.534Z,6.53
2018-08-28T03:43:20.763Z,7.13
2018-08-28T03:45:48.195Z,7.43
2018-08-28T03:48:15.426Z,8.43
2018-08-28T03:50:42.654Z,7.20
2018-08-28T03:53:09.867Z,8.03
2018-08-28T03:55:37.062Z,7.40
2018-08-28T03:58:04.313Z,7.30
2018-08-28T04:00:31.505Z,7.80
2018-08-28T04:02:58.745Z,7.67
2018-08-28T04:05:25.972Z,8.50
2018-08-28T04:07:53.242Z,7.00
2018-08-28T04:10:20.472Z,7.57
2018-08-28T04:12:47.691Z,7.80
2018-08-28T04:15:14.925Z,7.03
2018-08-28T04:17:45.993Z,7.57
2018-08-28T04:20:13.247Z,7.00
2018-08-28T04:22:40.484Z,8.43
2018-08-28T04:25:07.767Z,7.93
2018-08-28T04:27:34.977Z,7.67
2018-08-28T04:30:02.286Z,6.67
2018-08-28T04:32:29.514Z,7.00
2018-08-28T04:34:56.737Z,6.97
2018-08-28T04:37:24.021Z,6.43
2018-08-28T04:39:51.242Z,7.13
2018-08-28T04:42:18.462Z,7.20
2018-08-28T04:44:45.742Z,6.50
2018-08-28T04:47:12.950Z,6.73
2018-08-28T04:49:40.178Z,6.33
2018-08-28T04:52:07.394Z,7.00
2018-08-28T04:54:34.673Z,6.60
2018-08-28T04:57:01.946Z,6.73
2018-08-28T04:59:29.183Z,6.90
2018-08-28T05:01:56.414Z,8.00
2018-08-28T05:04:23.690Z,6.67
2018-08-28T05:06:50.933Z,7.17
2018-08-28T05:09:18.183Z,7.00
2018-08-28T05:11:45.464Z,7.50
2018-08-28T05:14:12.683Z,6.60
2018-08-28T05:16:39.920Z,6.80
2018-08-28T05:19:07.194Z,7.20
2018-08-28T05:21:35.207Z,6.40
2018-08-28T05:24:02.543Z,6.73
2018-08-28T05:26:29.777Z,6.30
2018-08-28T05:28:57.047Z,7.43
2018-08-28T05:31:24.830Z,6.37
2018-08-28T05:33:52.172Z,7.73
2018-08-28T05:36:19.402Z,6.67
2018-08-28T05:38:46.680Z,6.37
2018-08-28T05:41:13.933Z,6.23
2018-08-28T05:43:41.211Z,6.90
2018-08-28T05:46:08.449Z,5.70
2018-08-28T05:48:36.298Z,6.57
2018-08-28T05:51:03.550Z,6.20
2018-08-28T05:53:30.842Z,7.17
2018-08-28T05:55:58.358Z,7.60
2018-08-28T05:58:25.868Z,7.40
2018-08-28T06:00:53.196Z,6.73
2018-08-28T06:03:20.567Z,6.87
2018-08-28T06:05:47.757Z,7.87
2018-08-28T06:08:15.007Z,6.00
2018-08-28T06:10:42.289Z,7.57
2018-08-28T06:13:09.742Z,7.70
2018-08-28T06:15:37.002Z,6.53
2018-08-28T06:18:04.361Z,7.77
2018-08-28T06:20:31.629Z,7.23
2018-08-28T06:22:58.867Z,7.80
2018-08-28T06:25:26.131Z,7.20
2018-08-28T06:27:53.993Z,8.20
2018-08-28T06:30:21.250Z,7.53
2018-08-28T06:32:48.522Z,8.07
2018-08-28T06:35:15.784Z,6.70
2018-08-28T06:37:43.035Z,7.50
2018-08-28T06:40:10.361Z,7.53
2018-08-28T06:42:37.583Z,7.53
2018-08-28T06:45:04.961Z,7.63
2018-08-28T06:47:45.027Z,6.80
2018-08-28T06:50:26.490Z,7.07
2018-08-28T06:53:09.281Z,8.37
2018-08-28T06:55:37.915Z,7.13
2018-08-28T06:58:06.075Z,7.27
2018-08-28T07:00:34.272Z,7.57
2018-08-28T07:03:01.919Z,7.57
2018-08-28T07:05:43.783Z,6.53
2018-08-28T07:08:26.770Z,7.00
2018-08-28T07:11:04.092Z,7.90
2018-08-28T07:13:31.501Z,7.40
2018-08-28T07:15:58.926Z,7.07
2018-08-28T07:18:26.585Z,7.40
2018-08-28T07:20:53.818Z,6.83
2018-08-28T07:23:21.041Z,6.73
2018-08-28T07:25:48.319Z,6.80
2018-08-28T07:28:15.594Z,5.97
2018-08-28T07:30:43.230Z,6.30
2018-08-28T07:33:10.437Z,6.00
2018-08-28T07:35:37.694Z,6.67
2018-08-28T07:38:04.931Z,6.23
2018-08-28T07:40:32.154Z,5.63
2018-08-28T07:42:59.487Z,7.27
2018-08-28T07:45:27.084Z,6.93
2018-08-28T07:47:55.487Z,5.77
2018-08-28T07:50:22.774Z,6.67
2018-08-28T07:52:49.971Z,6.57
2018-08-28T07:55:17.190Z,6.60
2018-08-28T07:57:44.439Z,7.27
2018-08-28T08:00:11.673Z,7.00
2018-08-28T08:02:38.938Z,6.90
2018-08-28T08:05:06.433Z,7.23
2018-08-28T08:07:33.881Z,6.70
2018-08-28T08:10:01.090Z,7.07
2018-08-28T08:12:28.379Z,6.57
2018-08-28T08:14:55.590Z,5.67
2018-08-28T08:17:22.853Z,5.60
2018-08-28T08:19:50.110Z,5.27
2018-08-28T08:22:17.548Z,5.87
2018-08-28T08:24:45.265Z,6.33
2018-08-28T08:27:12.693Z,5.65
2018-08-28T08:29:39.925Z,6.67
2018-08-28T08:32:07.286Z,5.87
2018-08-28T08:34:34.533Z,5.83
2018-08-28T08:37:01.922Z,5.85
2018-08-28T08:39:29.146Z,6.20
2018-08-28T08:41:56.418Z,6.75
2018-08-28T08:44:23.675Z,6.92
2018-08-28T08:46:51.002Z,6.42
2018-08-28T08:49:18.246Z,5.92
2018-08-28T08:51:45.558Z,5.72
2018-08-28T08:54:12.810Z,5.85
2018-08-28T08:56:40.088Z,6.20
2018-08-28T08:59:07.315Z,5.10
2018-08-28T09:01:34.566Z,5.58
2018-08-28T09:04:02.313Z,5.17
2018-08-28T09:06:29.567Z,5.03
2018-08-28T09:08:56.795Z,5.00
2018-08-28T09:11:24.103Z,5.35
2018-08-28T09:13:51.341Z,4.55
2018-08-28T09:16:18.582Z,4.42
2018-08-28T09:18:45.846Z,3.92
2018-08-28T09:21:13.147Z,4.45
2018-08-28T09:23:40.386Z,5.00
2018-08-28T09:26:07.605Z,4.53
2018-08-28T09:28:34.872Z,4.85
2018-08-28T09:31:02.094Z,4.40
2018-08-28T09:33:29.328Z,4.90
2018-08-28T09:35:56.544Z,4.33
2018-08-28T09:38:23.857Z,4.60
2018-08-28T09:40:51.019Z,4.70
2018-08-28T09:43:18.266Z,5.50
2018-08-28T09:45:45.477Z,5.87
2018-08-28T09:48:12.776Z,5.58
2018-08-28T09:50:40.043Z,4.72
2018-08-28T09:53:07.255Z,5.72
2018-08-28T09:55:34.452Z,4.87
2018-08-28T09:58:01.684Z,4.58
2018-08-28T10:00:29.183Z,4.55
2018-08-28T10:02:57.411Z,4.75
2018-08-28T10:05:24.869Z,5.35
2018-08-28T10:07:52.209Z,4.60
2018-08-28T10:10:19.402Z,5.10
2018-08-28T10:12:46.670Z,5.30
2018-08-28T10:15:13.901Z,4.78
2018-08-28T10:17:41.606Z,5.12
2018-08-28T10:20:08.971Z,4.78
2018-08-28T10:22:36.255Z,5.08
2018-08-28T10:25:03.702Z,5.55
2018-08-28T10:27:30.977Z,5.20
2018-08-28T10:29:58.302Z,5.45
2018-08-28T10:32:25.526Z,5.08
2018-08-28T10:34:52.767Z,4.90
2018-08-28T10:37:20.067Z,5.80
2018-08-28T10:39:47.300Z,5.25
2018-08-28T10:42:14.527Z,4.92
2018-08-28T10:44:41.781Z,5.25
2018-08-28T10:47:09.019Z,5.60
2018-08-28T10:49:36.386Z,5.25
2018-08-28T10:52:03.719Z,5.90
2018-08-28T10:54:30.934Z,5.42
2018-08-28T10:56:58.159Z,6.00
2018-08-28T10:59:25.465Z,5.83
2018-08-28T11:01:52.673Z,5.50
2018-08-28T11:04:19.991Z,6.05
2018-08-28T11:06:47.258Z,5.65
2018-08-28T11:09:14.509Z,5.33
2018-08-28T11:11:41.955Z,5.60
2018-08-28T11:14:09.263Z,5.55
2018-08-28T11:16:36.494Z,5.45
2018-08-28T11:19:03.799Z,6.17
2018-08-28T11:21:31.126Z,6.25
2018-08-28T11:23:58.378Z,6.85
2018-08-28T11:26:25.630Z,5.92
2018-08-28T11:28:52.882Z,6.17
2018-08-28T11:31:20.254Z,6.30
2018-08-28T11:33:47.696Z,6.35
2018-08-28T11:36:15.190Z,5.95
2018-08-28T11:38:42.424Z,6.03
2018-08-28T11:41:09.609Z,6.12
2018-08-28T11:43:36.870Z,6.50
2018-08-28T11:46:04.101Z,6.55
2018-08-28T11:48:31.358Z,6.42
2018-08-28T11:50:58.581Z,6.28
2018-08-28T11:53:25.814Z,6.22
2018-08-28T11:55:53.010Z,6.05
2018-08-28T11:58:20.329Z,6.53
2018-08-28T12:00:47.627Z,7.10
2018-08-28T12:03:14.850Z,6.62
2018-08-28T12:05:42.063Z,6.85
2018-08-28T12:08:09.303Z,6.17
2018-08-28T12:10:36.546Z,6.87
2018-08-28T12:13:03.878Z,6.50
2018-08-28T12:15:32.856Z,6.55
2018-08-28T12:18:00.106Z,6.92
2018-08-28T12:20:27.414Z,6.42
2018-08-28T12:22:54.591Z,6.83
2018-08-28T12:25:21.798Z,6.92
2018-08-28T12:27:49.073Z,7.33
2018-08-28T12:30:16.490Z,6.33
2018-08-28T12:32:43.702Z,6.50
2018-08-28T12:35:10.957Z,6.60
2018-08-28T12:37:39.079Z,6.47
2018-08-28T12:40:06.411Z,6.60
2018-08-28T12:42:33.673Z,6.33
2018-08-28T12:45:01.122Z,6.65
2018-08-28T12:47:28.588Z,6.12
2018-08-28T12:49:55.813Z,6.42
2018-08-28T12:52:23.036Z,6.33
2018-08-28T12:54:50.305Z,5.92
2018-08-28T12:57:17.823Z,6.17
2018-08-28T12:59:45.118Z,6.08
2018-08-28T13:02:12.404Z,6.28
2018-08-28T13:04:40.438Z,6.50
2018-08-28T13:07:07.876Z,6.62
2018-08-28T13:09:35.170Z,6.30
2018-08-28T13:12:02.407Z,6.80
2018-08-28T13:14:29.768Z,6.12
2018-08-28T13:16:56.990Z,5.85
2018-08-28T13:19:24.278Z,5.83
2018-08-28T13:21:51.542Z,6.20
2018-08-28T13:24:18.823Z,6.90
2018-08-28T13:26:46.074Z,6.45
2018-08-28T13:29:13.333Z,6.80
2018-08-28T13:31:40.532Z,6.80
2018-08-28T13:34:08.085Z,5.80
2018-08-28T13:36:35.349Z,6.08
2018-08-28T13:39:03.121Z,6.05
2018-08-28T13:41:30.399Z,6.55
2018-08-28T13:43:57.624Z,6.20
2018-08-28T13:46:24.941Z,5.78
2018-08-28T13:48:52.199Z,6.45
2018-08-28T13:51:19.489Z,5.90
2018-08-28T13:53:46.734Z,6.10
2018-08-28T13:56:14.161Z,5.65
2018-08-28T13:58:41.449Z,5.95
2018-08-28T14:01:08.692Z,6.80
2018-08-28T14:03:35.974Z,7.00
2018-08-28T14:06:03.212Z,7.00
2018-08-28T14:08:30.475Z,5.67
2018-08-28T14:10:57.710Z,6.28
2018-08-28T14:13:25.115Z,6.45
2018-08-28T14:15:52.257Z,5.97
2018-08-28T14:18:19.529Z,6.30
2018-08-28T14:20:46.762Z,6.00
2018-08-28T14:23:14.037Z,6.00
2018-08-28T14:25:41.269Z,6.37
2018-08-28T14:28:08.486Z,6.15
2018-08-28T14:30:35.827Z,6.25
2018-08-28T14:33:03.186Z,6.42
2018-08-28T14:35:30.703Z,6.17
2018-08-28T14:37:57.889Z,5.67
2018-08-28T14:40:25.166Z,6.25
2018-08-28T14:42:54.377Z,6.03
2018-08-28T14:45:27.945Z,6.62
2018-08-28T14:47:55.742Z,6.42
2018-08-28T14:50:30.549Z,6.10
2018-08-28T14:52:59.099Z,5.60
2018-08-28T14:55:34.814Z,5.33
2018-08-28T14:58:08.866Z,5.97
2018-08-28T15:00:36.167Z,6.30
2018-08-28T15:03:03.414Z,5.50
2018-08-28T15:05:30.721Z,5.35
2018-08-28T15:07:57.981Z,5.37
2018-08-28T15:10:26.104Z,6.30
2018-08-28T15:12:53.326Z,6.67
2018-08-28T15:15:20.590Z,6.53
2018-08-28T15:17:47.833Z,6.22
2018-08-28T15:20:15.128Z,6.50
2018-08-28T15:22:42.363Z,6.90
2018-08-28T15:25:12.458Z,6.10
2018-08-28T15:27:39.838Z,6.27
2018-08-28T15:30:07.061Z,5.70
2018-08-28T15:32:34.389Z,5.83
2018-08-28T15:35:02.839Z,6.20
2018-08-28T15:37:30.168Z,5.77
2018-08-28T15:39:57.419Z,6.17
2018-08-28T15:42:24.798Z,5.80
2018-08-28T15:44:52.034Z,5.62
2018-08-28T15:47:19.528Z,7.58
2018-08-28T15:49:46.763Z,6.97
2018-08-28T15:52:14.051Z,5.97
2018-08-28T15:54:41.345Z,6.10
2018-08-28T15:57:08.748Z,6.23
2018-08-28T15:59:36.531Z,6.47
2018-08-28T16:02:03.911Z,5.87
2018-08-28T16:04:31.105Z,5.80
2018-08-28T16:06:58.376Z,5.83
2018-08-28T16:09:25.632Z,6.90
2018-08-28T16:11:52.919Z,6.60
2018-08-28T16:14:20.154Z,5.50
2018-08-28T16:16:47.415Z,5.60
2018-08-28T16:19:14.819Z,5.83
2018-08-28T16:21:44.807Z,5.13
2018-08-28T16:24:12.126Z,5.27
2018-08-28T16:26:39.534Z,5.27
2018-08-28T16:29:07.116Z,5.87
2018-08-28T16:31:34.592Z,5.23
2018-08-28T16:34:02.159Z,6.70
2018-08-28T16:36:30.144Z,5.50
2018-08-28T16:38:57.524Z,5.40
2018-08-28T16:41:24.815Z,5.13
2018-08-28T16:43:52.015Z,6.23
2018-08-28T16:46:19.272Z,6.20
2018-08-28T16:48:46.511Z,5.93
2018-08-28T16:51:13.772Z,5.33
2018-08-28T16:53:41.013Z,5.60
2018-08-28T16:56:08.331Z,5.57
2018-08-28T16:58:35.577Z,5.17
2018-08-28T17:01:02.821Z,5.67
2018-08-28T17:03:30.070Z,4.80
2018-08-28T17:05:57.317Z,5.40
2018-08-28T17:08:24.582Z,5.97
2018-08-28T17:10:51.819Z,5.20
2018-08-28T17:13:19.081Z,5.67
2018-08-28T17:15:46.319Z,6.13
2018-08-28T17:18:13.667Z,5.83
2018-08-28T17:20:40.997Z,5.67
2018-08-28T17:23:08.407Z,6.53
2018-08-28T17:25:35.635Z,6.03
2018-08-28T17:28:02.958Z,5.17
2018-08-28T17:30:30.205Z,5.43
2018-08-28T17:32:57.500Z,4.93
2018-08-28T17:35:25.435Z,5.30
2018-08-28T17:37:52.794Z,5.70
2018-08-28T17:40:20.985Z,5.53
2018-08-28T17:42:48.455Z,6.23
2018-08-28T17:45:15.851Z,5.93
2018-08-28T17:47:43.284Z,5.83
2018-08-28T17:50:10.778Z,5.93
2018-08-28T17:52:38.304Z,5.70
2018-08-28T17:55:05.846Z,5.57
2018-08-28T17:57:33.799Z,5.67
2018-08-28T18:00:01.054Z,5.57
2018-08-28T18:02:28.294Z,6.47
2018-08-28T18:04:55.876Z,5.33
2018-08-28T18:07:23.212Z,5.17
2018-08-28T18:09:50.583Z,5.33
2018-08-28T18:12:18.121Z,5.53
2018-08-28T18:14:45.588Z,5.97
2018-08-28T18:17:12.915Z,5.37
2018-08-28T18:19:40.278Z,5.83
2018-08-28T18:22:07.743Z,5.47
2018-08-28T18:24:35.330Z,5.20
2018-08-28T18:27:02.587Z,5.47
2018-08-28T18:29:30.044Z,6.13
2018-08-28T18:31:57.390Z,6.13
2018-08-28T18:34:24.859Z,6.00
2018-08-28T18:36:52.264Z,5.93
2018-08-28T18:39:19.630Z,5.73
2018-08-28T18:41:47.019Z,5.30
2018-08-28T18:44:14.370Z,5.93
2018-08-28T18:46:41.749Z,6.50
2018-08-28T18:49:09.118Z,5.80
2018-08-28T18:51:36.378Z,6.17
2018-08-28T18:54:03.786Z,5.50
2018-08-28T18:56:31.031Z,5.67
2018-08-28T18:58:58.453Z,5.70
2018-08-28T19:01:25.963Z,6.07
2018-08-28T19:03:53.421Z,5.60
2018-08-28T19:06:20.762Z,5.57
2018-08-28T19:08:48.318Z,5.70
2018-08-28T19:11:15.784Z,6.27
2018-08-28T19:13:43.399Z,5.80
2018-08-28T19:16:11.415Z,5.77
2018-08-28T19:18:38.858Z,5.63
2018-08-28T19:21:06.933Z,5.90
2018-08-28T19:23:34.448Z,5.63
2018-08-28T19:26:01.912Z,5.80
2018-08-28T19:28:29.247Z,6.03
2018-08-28T19:30:56.808Z,5.03
2018-08-28T19:33:24.470Z,6.30
2018-08-28T19:35:51.980Z,5.80
2018-08-28T19:38:19.420Z,5.27
2018-08-28T19:40:46.924Z,5.47
2018-08-28T19:43:14.388Z,5.20
2018-08-28T19:45:42.430Z,5.23
2018-08-28T19:48:09.707Z,5.27
2018-08-28T19:50:36.979Z,5.67
2018-08-28T19:53:04.426Z,6.10
2018-08-28T19:55:31.678Z,5.60
2018-08-28T19:58:00.041Z,5.00
2018-08-28T20:00:27.312Z,5.47
2018-08-28T20:02:54.761Z,5.57
2018-08-28T20:05:22.073Z,4.87
2018-08-28T20:07:49.419Z,4.90
2018-08-28T20:10:16.779Z,5.43
2018-08-28T20:12:44.327Z,6.07
2018-08-28T20:15:11.624Z,4.93
2018-08-28T20:17:39.099Z,5.20
2018-08-28T20:20:06.443Z,5.47
2018-08-28T20:22:33.675Z,5.80
2018-08-28T20:25:00.986Z,4.70
2018-08-28T20:27:28.280Z,4.67
2018-08-28T20:29:55.626Z,5.20
2018-08-28T20:32:22.811Z,5.67
2018-08-28T20:34:50.028Z,5.40
2018-08-28T20:37:17.261Z,5.70
2018-08-28T20:39:44.536Z,5.20
2018-08-28T20:42:11.767Z,5.37
2018-08-28T20:44:38.986Z,5.67
2018-08-28T20:47:06.236Z,5.90
2018-08-28T20:49:33.469Z,5.33
2018-08-28T20:52:00.711Z,5.50
2018-08-28T20:54:27.950Z,5.83
2018-08-28T20:56:55.182Z,6.20
2018-08-28T20:59:22.404Z,6.33
2018-08-28T21:01:49.618Z,5.97
2018-08-28T21:04:16.844Z,6.13
2018-08-28T21:06:44.088Z,6.13
2018-08-28T21:09:11.377Z,6.00
2018-08-28T21:11:38.615Z,5.87
2018-08-28T21:14:05.872Z,6.80
2018-08-28T21:16:33.081Z,6.37
2018-08-28T21:19:00.345Z,6.10
2018-08-28T21:21:27.586Z,6.73
2018-08-28T21:23:54.790Z,4.67
2018-08-28T21:26:22.024Z,5.50
2018-08-28T21:28:49.321Z,6.63
2018-08-28T21:31:16.524Z,6.43
2018-08-28T21:33:43.751Z,6.50
2018-08-28T21:36:10.978Z,6.70
2018-08-28T21:38:38.194Z,6.63
2018-08-28T21:41:05.419Z,6.10
2018-08-28T21:43:32.654Z,6.57
2018-08-28T21:45:59.941Z,6.17
2018-08-28T21:48:27.168Z,6.70
2018-08-28T21:50:54.433Z,6.33
2018-08-28T21:53:21.639Z,6.13
2018-08-28T21:55:48.888Z,7.37
2018-08-28T21:58:16.152Z,6.70
2018-08-28T22:00:43.477Z,6.67
2018-08-28T22:03:10.686Z,6.40
2018-08-28T22:05:37.949Z,6.13
2018-08-28T22:08:05.467Z,6.00
2018-08-28T22:10:33.091Z,6.30
2018-08-28T22:13:00.317Z,6.87
2018-08-28T22:15:27.591Z,6.53
2018-08-28T22:17:55.097Z,7.00
2018-08-28T22:20:22.363Z,6.53
2018-08-28T22:22:50.014Z,6.37
2018-08-28T22:25:17.273Z,6.27
2018-08-28T22:27:44.473Z,7.17
2018-08-28T22:30:11.934Z,7.17
2018-08-28T22:32:40.052Z,7.67
2018-08-28T22:35:07.325Z,6.90
2018-08-28T22:37:34.586Z,6.73
2018-08-28T22:40:02.030Z,7.37
2018-08-28T22:42:29.223Z,7.30
2018-08-28T22:44:56.438Z,6.50
2018-08-28T22:47:23.624Z,7.70
2018-08-28T22:49:50.846Z,7.23
2018-08-28T22:52:18.206Z,7.13
2018-08-28T22:54:45.486Z,6.67
2018-08-28T22:57:12.702Z,6.50
2018-08-28T22:59:39.954Z,6.40
2018-08-28T23:02:07.209Z,6.53
2018-08-28T23:04:34.501Z,6.97
2018-08-28T23:07:01.758Z,8.00
2018-08-28T23:09:28.991Z,7.43
2018-08-28T23:11:56.223Z,7.23
2018-08-28T23:14:23.493Z,7.13
2018-08-28T23:16:50.882Z,7.37
2018-08-28T23:19:18.106Z,6.93
2018-08-28T23:21:45.333Z,7.20
2018-08-28T23:24:12.574Z,7.47
2018-08-28T23:26:39.822Z,7.23
2018-08-28T23:29:07.081Z,7.17
2018-08-28T23:31:34.666Z,7.20
2018-08-28T23:34:01.947Z,7.30
2018-08-28T23:36:29.201Z,8.07
2018-08-28T23:38:56.493Z,7.90
2018-08-28T23:41:23.753Z,7.40
2018-08-28T23:43:51.004Z,7.73
2018-08-28T23:46:18.497Z,7.50
2018-08-28T23:48:45.701Z,8.27
2018-08-28T23:51:12.975Z,7.17
2018-08-28T23:53:40.207Z,6.13
2018-08-28T23:56:07.754Z,7.33
2018-08-28T23:58:34.977Z,7.13
